sensor_id;sensor_type;location;lat;lon;timestamp;P1;durP1;ratioP1;P2;durP2;ratioP2
29504;SDS011;16452;54.174;12.092;2022-11-10T00:01:03;7.53;;;2.13;;
29504;SDS011;16452;54.174;12.092;2022-11-10T00:03:30;6.25;;;2.17;;
29504;SDS011;16452;54.174;12.092;2022-11-10T00:05:56;8.02;;;2.10;;
29504;SDS011;16452;54.174;12.092;2022-11-10T00:08:22;6.20;;;2.20;;
29504;SDS011;16452;54.174;12.092;2022-11-10T00:10:48;7.15;;;2.00;;
29504;SDS011;16452;54.174;12.092;2022-11-10T00:13:23;10.68;;;2.72;;
29504;SDS011;16452;54.174;12.092;2022-11-10T00:16:02;6.20;;;2.20;;
29504;SDS011;16452;54.174;12.092;2022-11-10T00:18:59;5.38;;;2.20;;
29504;SDS011;16452;54.174;12.092;2022-11-10T00:21:24;9.27;;;2.20;;
29504;SDS011;16452;54.174;12.092;2022-11-10T00:23:50;10.98;;;2.65;;
29504;SDS011;16452;54.174;12.092;2022-11-10T00:26:18;12.45;;;2.28;;
29504;SDS011;16452;54.174;12.092;2022-11-10T00:28:44;10.30;;;2.22;;
29504;SDS011;16452;54.174;12.092;2022-11-10T00:31:10;5.70;;;1.80;;
29504;SDS011;16452;54.174;12.092;2022-11-10T00:33:37;6.28;;;2.10;;
29504;SDS011;16452;54.174;12.092;2022-11-10T00:36:05;4.05;;;1.70;;
29504;SDS011;16452;54.174;12.092;2022-11-10T00:38:31;7.20;;;1.80;;
29504;SDS011;16452;54.174;12.092;2022-11-10T00:40:57;8.98;;;1.52;;
29504;SDS011;16452;54.174;12.092;2022-11-10T00:43:24;3.83;;;1.60;;
29504;SDS011;16452;54.174;12.092;2022-11-10T00:45:51;6.13;;;1.50;;
29504;SDS011;16452;54.174;12.092;2022-11-10T00:48:16;6.78;;;1.65;;
29504;SDS011;16452;54.174;12.092;2022-11-10T00:50:42;4.20;;;1.02;;
29504;SDS011;16452;54.174;12.092;2022-11-10T00:53:08;4.82;;;1.20;;
29504;SDS011;16452;54.174;12.092;2022-11-10T00:55:37;4.53;;;1.20;;
29504;SDS011;16452;54.174;12.092;2022-11-10T00:58:07;5.65;;;1.27;;
29504;SDS011;16452;54.174;12.092;2022-11-10T01:00:37;4.05;;;1.20;;
29504;SDS011;16452;54.174;12.092;2022-11-10T01:03:02;2.67;;;0.95;;
29504;SDS011;16452;54.174;12.092;2022-11-10T01:05:29;3.10;;;0.90;;
29504;SDS011;16452;54.174;12.092;2022-11-10T01:07:56;2.45;;;0.73;;
29504;SDS011;16452;54.174;12.092;2022-11-10T01:10:23;1.80;;;0.70;;
29504;SDS011;16452;54.174;12.092;2022-11-10T01:12:49;1.77;;;0.60;;
29504;SDS011;16452;54.174;12.092;2022-11-10T01:15:15;2.70;;;0.70;;
29504;SDS011;16452;54.174;12.092;2022-11-10T01:17:41;2.10;;;0.73;;
29504;SDS011;16452;54.174;12.092;2022-11-10T01:20:06;1.55;;;0.60;;
29504;SDS011;16452;54.174;12.092;2022-11-10T01:22:34;1.40;;;0.80;;
29504;SDS011;16452;54.174;12.092;2022-11-10T01:24:59;1.48;;;0.52;;
29504;SDS011;16452;54.174;12.092;2022-11-10T01:27:25;2.50;;;0.63;;
29504;SDS011;16452;54.174;12.092;2022-11-10T01:29:51;1.25;;;0.70;;
29504;SDS011;16452;54.174;12.092;2022-11-10T01:32:17;1.60;;;0.60;;
29504;SDS011;16452;54.174;12.092;2022-11-10T01:34:42;4.00;;;0.70;;
29504;SDS011;16452;54.174;12.092;2022-11-10T01:37:10;3.67;;;0.70;;
29504;SDS011;16452;54.174;12.092;2022-11-10T01:39:36;1.65;;;0.70;;
29504;SDS011;16452;54.174;12.092;2022-11-10T01:42:02;1.88;;;0.65;;
29504;SDS011;16452;54.174;12.092;2022-11-10T01:44:28;1.80;;;0.80;;
29504;SDS011;16452;54.174;12.092;2022-11-10T01:46:54;2.80;;;0.70;;
29504;SDS011;16452;54.174;12.092;2022-11-10T01:49:21;4.20;;;0.75;;
29504;SDS011;16452;54.174;12.092;2022-11-10T01:52:00;2.13;;;0.80;;
29504;SDS011;16452;54.174;12.092;2022-11-10T01:54:33;1.48;;;0.60;;
29504;SDS011;16452;54.174;12.092;2022-11-10T01:57:05;2.90;;;0.55;;
29504;SDS011;16452;54.174;12.092;2022-11-10T01:59:34;1.00;;;0.65;;
29504;SDS011;16452;54.174;12.092;2022-11-10T02:02:14;2.50;;;0.60;;
29504;SDS011;16452;54.174;12.092;2022-11-10T02:05:03;1.33;;;0.50;;
29504;SDS011;16452;54.174;12.092;2022-11-10T02:07:31;2.28;;;0.70;;
29504;SDS011;16452;54.174;12.092;2022-11-10T02:10:00;2.85;;;0.95;;
29504;SDS011;16452;54.174;12.092;2022-11-10T02:12:28;1.63;;;0.60;;
29504;SDS011;16452;54.174;12.092;2022-11-10T02:15:13;2.65;;;0.90;;
29504;SDS011;16452;54.174;12.092;2022-11-10T02:17:41;2.13;;;0.60;;
29504;SDS011;16452;54.174;12.092;2022-11-10T02:20:11;1.90;;;0.70;;
29504;SDS011;16452;54.174;12.092;2022-11-10T02:22:40;1.10;;;0.45;;
29504;SDS011;16452;54.174;12.092;2022-11-10T02:25:06;0.43;;;0.43;;
29504;SDS011;16452;54.174;12.092;2022-11-10T02:27:32;2.38;;;0.52;;
29504;SDS011;16452;54.174;12.092;2022-11-10T02:29:58;1.73;;;0.57;;
29504;SDS011;16452;54.174;12.092;2022-11-10T02:32:25;3.80;;;0.82;;
29504;SDS011;16452;54.174;12.092;2022-11-10T02:34:52;2.17;;;0.70;;
29504;SDS011;16452;54.174;12.092;2022-11-10T02:37:18;1.33;;;0.60;;
29504;SDS011;16452;54.174;12.092;2022-11-10T02:39:44;1.58;;;0.73;;
29504;SDS011;16452;54.174;12.092;2022-11-10T02:42:09;2.60;;;0.50;;
29504;SDS011;16452;54.174;12.092;2022-11-10T02:44:38;2.22;;;0.98;;
29504;SDS011;16452;54.174;12.092;2022-11-10T02:47:04;2.22;;;0.63;;
29504;SDS011;16452;54.174;12.092;2022-11-10T02:49:31;1.30;;;0.63;;
29504;SDS011;16452;54.174;12.092;2022-11-10T02:51:57;2.20;;;0.57;;
29504;SDS011;16452;54.174;12.092;2022-11-10T02:54:23;3.83;;;0.80;;
29504;SDS011;16452;54.174;12.092;2022-11-10T02:56:49;1.65;;;0.52;;
29504;SDS011;16452;54.174;12.092;2022-11-10T02:59:14;2.08;;;0.60;;
29504;SDS011;16452;54.174;12.092;2022-11-10T03:01:40;2.00;;;0.57;;
29504;SDS011;16452;54.174;12.092;2022-11-10T03:04:06;3.20;;;0.75;;
29504;SDS011;16452;54.174;12.092;2022-11-10T03:06:32;2.53;;;0.80;;
29504;SDS011;16452;54.174;12.092;2022-11-10T03:08:58;2.63;;;0.80;;
29504;SDS011;16452;54.174;12.092;2022-11-10T03:11:24;3.40;;;0.80;;
29504;SDS011;16452;54.174;12.092;2022-11-10T03:13:50;1.60;;;0.60;;
29504;SDS011;16452;54.174;12.092;2022-11-10T03:16:16;2.80;;;0.80;;
29504;SDS011;16452;54.174;12.092;2022-11-10T03:18:44;2.08;;;0.75;;
29504;SDS011;16452;54.174;12.092;2022-11-10T03:21:10;3.35;;;1.00;;
29504;SDS011;16452;54.174;12.092;2022-11-10T03:23:36;5.40;;;0.80;;
29504;SDS011;16452;54.174;12.092;2022-11-10T03:26:05;4.20;;;1.10;;
29504;SDS011;16452;54.174;12.092;2022-11-10T03:28:31;4.32;;;0.90;;
29504;SDS011;16452;54.174;12.092;2022-11-10T03:30:58;3.72;;;1.13;;
29504;SDS011;16452;54.174;12.092;2022-11-10T03:33:24;3.97;;;1.20;;
29504;SDS011;16452;54.174;12.092;2022-11-10T03:35:50;3.03;;;1.30;;
29504;SDS011;16452;54.174;12.092;2022-11-10T03:38:15;4.55;;;1.90;;
29504;SDS011;16452;54.174;12.092;2022-11-10T03:40:41;4.95;;;1.85;;
29504;SDS011;16452;54.174;12.092;2022-11-10T03:43:07;7.68;;;2.20;;
29504;SDS011;16452;54.174;12.092;2022-11-10T03:45:35;10.52;;;2.85;;
29504;SDS011;16452;54.174;12.092;2022-11-10T03:48:01;6.68;;;2.45;;
29504;SDS011;16452;54.174;12.092;2022-11-10T03:50:26;9.43;;;2.58;;
29504;SDS011;16452;54.174;12.092;2022-11-10T03:52:52;6.80;;;2.47;;
29504;SDS011;16452;54.174;12.092;2022-11-10T03:55:18;9.25;;;2.58;;
29504;SDS011;16452;54.174;12.092;2022-11-10T03:57:44;6.35;;;2.40;;
29504;SDS011;16452;54.174;12.092;2022-11-10T04:00:10;7.38;;;2.60;;
29504;SDS011;16452;54.174;12.092;2022-11-10T04:02:38;9.57;;;2.78;;
29504;SDS011;16452;54.174;12.092;2022-11-10T04:05:04;8.85;;;2.78;;
29504;SDS011;16452;54.174;12.092;2022-11-10T04:07:59;10.38;;;2.90;;
29504;SDS011;16452;54.174;12.092;2022-11-10T04:10:44;8.18;;;2.92;;
29504;SDS011;16452;54.174;12.092;2022-11-10T04:13:10;5.68;;;3.22;;
29504;SDS011;16452;54.174;12.092;2022-11-10T04:15:54;6.00;;;3.25;;
29504;SDS011;16452;54.174;12.092;2022-11-10T04:18:20;8.93;;;3.70;;
29504;SDS011;16452;54.174;12.092;2022-11-10T04:20:49;9.40;;;3.55;;
29504;SDS011;16452;54.174;12.092;2022-11-10T04:23:23;10.80;;;3.53;;
29504;SDS011;16452;54.174;12.092;2022-11-10T04:28:44;10.90;;;4.00;;
29504;SDS011;16452;54.174;12.092;2022-11-10T04:31:14;13.82;;;4.03;;
29504;SDS011;16452;54.174;12.092;2022-11-10T04:33:43;11.57;;;4.32;;
29504;SDS011;16452;54.174;12.092;2022-11-10T04:36:11;12.13;;;4.18;;
29504;SDS011;16452;54.174;12.092;2022-11-10T04:38:40;13.48;;;4.35;;
29504;SDS011;16452;54.174;12.092;2022-11-10T04:41:06;14.45;;;4.20;;
29504;SDS011;16452;54.174;12.092;2022-11-10T04:43:33;13.52;;;4.28;;
29504;SDS011;16452;54.174;12.092;2022-11-10T04:45:59;14.70;;;4.60;;
29504;SDS011;16452;54.174;12.092;2022-11-10T04:48:25;13.50;;;4.55;;
29504;SDS011;16452;54.174;12.092;2022-11-10T04:50:52;14.95;;;4.30;;
29504;SDS011;16452;54.174;12.092;2022-11-10T04:53:18;10.95;;;4.43;;
29504;SDS011;16452;54.174;12.092;2022-11-10T04:55:44;12.05;;;4.85;;
29504;SDS011;16452;54.174;12.092;2022-11-10T04:58:11;13.23;;;4.90;;
29504;SDS011;16452;54.174;12.092;2022-11-10T05:00:38;12.05;;;4.20;;
29504;SDS011;16452;54.174;12.092;2022-11-10T05:03:05;14.82;;;4.28;;
29504;SDS011;16452;54.174;12.092;2022-11-10T05:05:33;12.48;;;4.03;;
29504;SDS011;16452;54.174;12.092;2022-11-10T05:07:59;14.32;;;4.80;;
29504;SDS011;16452;54.174;12.092;2022-11-10T05:10:26;13.70;;;4.60;;
29504;SDS011;16452;54.174;12.092;2022-11-10T05:12:53;11.57;;;4.03;;
29504;SDS011;16452;54.174;12.092;2022-11-10T05:15:20;21.98;;;5.43;;
29504;SDS011;16452;54.174;12.092;2022-11-10T05:17:50;15.32;;;4.68;;
29504;SDS011;16452;54.174;12.092;2022-11-10T05:20:18;11.85;;;4.68;;
29504;SDS011;16452;54.174;12.092;2022-11-10T05:22:47;16.60;;;5.10;;
29504;SDS011;16452;54.174;12.092;2022-11-10T05:25:33;12.40;;;4.80;;
29504;SDS011;16452;54.174;12.092;2022-11-10T05:28:02;10.45;;;4.47;;
29504;SDS011;16452;54.174;12.092;2022-11-10T05:30:29;15.45;;;4.70;;
29504;SDS011;16452;54.174;12.092;2022-11-10T05:32:55;12.35;;;4.90;;
29504;SDS011;16452;54.174;12.092;2022-11-10T05:35:20;8.90;;;4.43;;
29504;SDS011;16452;54.174;12.092;2022-11-10T05:37:46;12.27;;;4.40;;
29504;SDS011;16452;54.174;12.092;2022-11-10T05:40:12;13.60;;;4.45;;
29504;SDS011;16452;54.174;12.092;2022-11-10T05:42:42;12.38;;;4.53;;
29504;SDS011;16452;54.174;12.092;2022-11-10T05:45:09;14.18;;;4.50;;
29504;SDS011;16452;54.174;12.092;2022-11-10T05:47:36;12.43;;;4.97;;
29504;SDS011;16452;54.174;12.092;2022-11-10T05:50:02;12.13;;;4.70;;
29504;SDS011;16452;54.174;12.092;2022-11-10T05:52:29;14.73;;;5.22;;
29504;SDS011;16452;54.174;12.092;2022-11-10T05:54:54;14.05;;;4.65;;
29504;SDS011;16452;54.174;12.092;2022-11-10T05:57:20;12.15;;;5.00;;
29504;SDS011;16452;54.174;12.092;2022-11-10T05:59:46;13.68;;;4.57;;
29504;SDS011;16452;54.174;12.092;2022-11-10T06:02:12;10.50;;;4.57;;
29504;SDS011;16452;54.174;12.092;2022-11-10T06:04:37;13.73;;;4.80;;
29504;SDS011;16452;54.174;12.092;2022-11-10T06:07:03;11.30;;;4.07;;
29504;SDS011;16452;54.174;12.092;2022-11-10T06:09:29;12.52;;;4.22;;
29504;SDS011;16452;54.174;12.092;2022-11-10T06:11:54;15.35;;;5.03;;
29504;SDS011;16452;54.174;12.092;2022-11-10T06:14:20;9.68;;;4.85;;
29504;SDS011;16452;54.174;12.092;2022-11-10T06:16:46;9.85;;;4.68;;
29504;SDS011;16452;54.174;12.092;2022-11-10T06:19:11;14.55;;;4.97;;
29504;SDS011;16452;54.174;12.092;2022-11-10T06:21:37;12.98;;;4.88;;
29504;SDS011;16452;54.174;12.092;2022-11-10T06:24:03;9.13;;;4.55;;
29504;SDS011;16452;54.174;12.092;2022-11-10T06:26:29;10.70;;;4.53;;
29504;SDS011;16452;54.174;12.092;2022-11-10T06:28:55;11.52;;;4.82;;
29504;SDS011;16452;54.174;12.092;2022-11-10T06:31:21;12.35;;;4.63;;
29504;SDS011;16452;54.174;12.092;2022-11-10T06:33:47;15.27;;;4.20;;
29504;SDS011;16452;54.174;12.092;2022-11-10T06:36:13;8.63;;;4.25;;
29504;SDS011;16452;54.174;12.092;2022-11-10T06:38:39;10.40;;;5.05;;
29504;SDS011;16452;54.174;12.092;2022-11-10T06:41:05;15.75;;;5.53;;
29504;SDS011;16452;54.174;12.092;2022-11-10T06:43:31;14.23;;;4.95;;
29504;SDS011;16452;54.174;12.092;2022-11-10T06:45:57;13.02;;;4.95;;
29504;SDS011;16452;54.174;12.092;2022-11-10T06:48:22;15.10;;;4.75;;
29504;SDS011;16452;54.174;12.092;2022-11-10T06:50:48;10.63;;;4.90;;
29504;SDS011;16452;54.174;12.092;2022-11-10T06:53:14;10.35;;;4.78;;
29504;SDS011;16452;54.174;12.092;2022-11-10T06:55:41;15.82;;;4.80;;
29504;SDS011;16452;54.174;12.092;2022-11-10T06:58:07;10.48;;;4.80;;
29504;SDS011;16452;54.174;12.092;2022-11-10T07:00:34;10.98;;;4.70;;
29504;SDS011;16452;54.174;12.092;2022-11-10T07:03:06;13.65;;;4.90;;
29504;SDS011;16452;54.174;12.092;2022-11-10T07:05:36;12.43;;;5.05;;
29504;SDS011;16452;54.174;12.092;2022-11-10T07:08:05;14.93;;;4.95;;
29504;SDS011;16452;54.174;12.092;2022-11-10T07:10:41;12.55;;;4.97;;
29504;SDS011;16452;54.174;12.092;2022-11-10T07:13:16;9.32;;;4.95;;
29504;SDS011;16452;54.174;12.092;2022-11-10T07:15:42;12.45;;;5.15;;
29504;SDS011;16452;54.174;12.092;2022-11-10T07:18:08;17.60;;;6.03;;
29504;SDS011;16452;54.174;12.092;2022-11-10T07:20:33;12.15;;;5.50;;
29504;SDS011;16452;54.174;12.092;2022-11-10T07:23:00;13.60;;;5.63;;
29504;SDS011;16452;54.174;12.092;2022-11-10T07:25:29;13.40;;;5.70;;
29504;SDS011;16452;54.174;12.092;2022-11-10T07:27:58;11.52;;;5.82;;
29504;SDS011;16452;54.174;12.092;2022-11-10T07:30:26;10.35;;;5.80;;
29504;SDS011;16452;54.174;12.092;2022-11-10T07:32:57;10.88;;;5.80;;
29504;SDS011;16452;54.174;12.092;2022-11-10T07:35:25;15.05;;;6.38;;
29504;SDS011;16452;54.174;12.092;2022-11-10T07:37:53;18.13;;;6.85;;
29504;SDS011;16452;54.174;12.092;2022-11-10T07:40:20;12.85;;;6.45;;
29504;SDS011;16452;54.174;12.092;2022-11-10T07:42:46;15.43;;;8.40;;
29504;SDS011;16452;54.174;12.092;2022-11-10T07:45:12;16.92;;;7.88;;
29504;SDS011;16452;54.174;12.092;2022-11-10T07:47:38;16.60;;;7.85;;
29504;SDS011;16452;54.174;12.092;2022-11-10T07:50:04;18.30;;;7.72;;
29504;SDS011;16452;54.174;12.092;2022-11-10T07:52:30;15.48;;;7.85;;
29504;SDS011;16452;54.174;12.092;2022-11-10T07:54:56;14.32;;;7.90;;
29504;SDS011;16452;54.174;12.092;2022-11-10T07:57:22;17.38;;;8.80;;
29504;SDS011;16452;54.174;12.092;2022-11-10T07:59:48;17.90;;;9.20;;
29504;SDS011;16452;54.174;12.092;2022-11-10T08:02:14;19.65;;;10.02;;
29504;SDS011;16452;54.174;12.092;2022-11-10T08:04:39;19.38;;;10.13;;
29504;SDS011;16452;54.174;12.092;2022-11-10T08:07:05;19.98;;;11.23;;
29504;SDS011;16452;54.174;12.092;2022-11-10T08:09:31;17.67;;;10.40;;
29504;SDS011;16452;54.174;12.092;2022-11-10T08:11:57;18.80;;;11.75;;
29504;SDS011;16452;54.174;12.092;2022-11-10T08:14:22;23.33;;;13.02;;
29504;SDS011;16452;54.174;12.092;2022-11-10T08:16:48;18.73;;;12.70;;
29504;SDS011;16452;54.174;12.092;2022-11-10T08:19:14;20.60;;;13.10;;
29504;SDS011;16452;54.174;12.092;2022-11-10T08:21:40;23.33;;;14.27;;
29504;SDS011;16452;54.174;12.092;2022-11-10T08:24:06;23.52;;;15.77;;
29504;SDS011;16452;54.174;12.092;2022-11-10T08:26:32;28.05;;;17.15;;
29504;SDS011;16452;54.174;12.092;2022-11-10T08:28:58;22.05;;;15.15;;
29504;SDS011;16452;54.174;12.092;2022-11-10T08:31:23;23.20;;;15.23;;
29504;SDS011;16452;54.174;12.092;2022-11-10T08:33:49;23.42;;;13.32;;
29504;SDS011;16452;54.174;12.092;2022-11-10T08:36:15;24.38;;;14.00;;
29504;SDS011;16452;54.174;12.092;2022-11-10T08:38:41;22.10;;;13.85;;
29504;SDS011;16452;54.174;12.092;2022-11-10T08:41:07;24.17;;;15.32;;
29504;SDS011;16452;54.174;12.092;2022-11-10T08:43:32;28.33;;;15.30;;
29504;SDS011;16452;54.174;12.092;2022-11-10T08:45:58;27.52;;;14.48;;
29504;SDS011;16452;54.174;12.092;2022-11-10T08:48:25;22.88;;;14.07;;
29504;SDS011;16452;54.174;12.092;2022-11-10T08:50:51;24.92;;;15.43;;
29504;SDS011;16452;54.174;12.092;2022-11-10T08:53:18;29.05;;;14.65;;
29504;SDS011;16452;54.174;12.092;2022-11-10T08:55:47;27.10;;;14.88;;
29504;SDS011;16452;54.174;12.092;2022-11-10T08:58:14;25.00;;;15.07;;
29504;SDS011;16452;54.174;12.092;2022-11-10T09:00:45;24.10;;;15.68;;
29504;SDS011;16452;54.174;12.092;2022-11-10T09:03:15;24.23;;;14.73;;
29504;SDS011;16452;54.174;12.092;2022-11-10T09:05:47;24.92;;;13.93;;
29504;SDS011;16452;54.174;12.092;2022-11-10T09:08:15;24.52;;;15.25;;
29504;SDS011;16452;54.174;12.092;2022-11-10T09:10:43;21.98;;;14.05;;
29504;SDS011;16452;54.174;12.092;2022-11-10T09:13:12;25.95;;;14.07;;
29504;SDS011;16452;54.174;12.092;2022-11-10T09:15:39;26.70;;;13.98;;
29504;SDS011;16452;54.174;12.092;2022-11-10T09:18:07;23.15;;;14.27;;
29504;SDS011;16452;54.174;12.092;2022-11-10T09:20:34;21.83;;;12.85;;
29504;SDS011;16452;54.174;12.092;2022-11-10T09:23:08;32.28;;;13.52;;
29504;SDS011;16452;54.174;12.092;2022-11-10T09:25:40;21.85;;;12.65;;
29504;SDS011;16452;54.174;12.092;2022-11-10T09:28:10;24.35;;;11.95;;
29504;SDS011;16452;54.174;12.092;2022-11-10T09:30:38;26.45;;;12.18;;
29504;SDS011;16452;54.174;12.092;2022-11-10T09:33:05;19.95;;;10.85;;
29504;SDS011;16452;54.174;12.092;2022-11-10T09:35:31;23.38;;;12.23;;
29504;SDS011;16452;54.174;12.092;2022-11-10T09:37:57;24.52;;;11.02;;
29504;SDS011;16452;54.174;12.092;2022-11-10T09:40:47;20.98;;;10.48;;
29504;SDS011;16452;54.174;12.092;2022-11-10T09:46:31;20.60;;;8.98;;
29504;SDS011;16452;54.174;12.092;2022-11-10T09:51:54;16.83;;;7.53;;
29504;SDS011;16452;54.174;12.092;2022-11-10T09:57:18;18.50;;;8.18;;
29504;SDS011;16452;54.174;12.092;2022-11-10T09:59:48;20.90;;;8.02;;
29504;SDS011;16452;54.174;12.092;2022-11-10T10:02:32;20.55;;;8.05;;
29504;SDS011;16452;54.174;12.092;2022-11-10T10:11:28;21.55;;;7.55;;
29504;SDS011;16452;54.174;12.092;2022-11-10T10:14:27;15.77;;;7.70;;
29504;SDS011;16452;54.174;12.092;2022-11-10T10:20:43;20.88;;;7.50;;
29504;SDS011;16452;54.174;12.092;2022-11-10T10:23:37;20.00;;;7.03;;
29504;SDS011;16452;54.174;12.092;2022-11-10T10:26:14;18.50;;;7.47;;
29504;SDS011;16452;54.174;12.092;2022-11-10T10:28:45;20.77;;;7.13;;
29504;SDS011;16452;54.174;12.092;2022-11-10T10:33:45;19.23;;;6.93;;
29504;SDS011;16452;54.174;12.092;2022-11-10T10:36:14;16.23;;;6.50;;
29504;SDS011;16452;54.174;12.092;2022-11-10T10:38:58;19.63;;;6.40;;
29504;SDS011;16452;54.174;12.092;2022-11-10T10:41:32;19.45;;;6.63;;
29504;SDS011;16452;54.174;12.092;2022-11-10T10:44:01;19.63;;;6.85;;
29504;SDS011;16452;54.174;12.092;2022-11-10T10:49:30;19.20;;;6.50;;
29504;SDS011;16452;54.174;12.092;2022-11-10T10:54:35;17.33;;;6.63;;
29504;SDS011;16452;54.174;12.092;2022-11-10T10:57:19;18.50;;;6.80;;
29504;SDS011;16452;54.174;12.092;2022-11-10T11:02:41;18.75;;;6.45;;
29504;SDS011;16452;54.174;12.092;2022-11-10T11:05:08;17.15;;;6.57;;
29504;SDS011;16452;54.174;12.092;2022-11-10T11:07:41;16.15;;;6.57;;
29504;SDS011;16452;54.174;12.092;2022-11-10T11:10:20;15.85;;;6.38;;
29504;SDS011;16452;54.174;12.092;2022-11-10T11:12:49;21.88;;;6.50;;
29504;SDS011;16452;54.174;12.092;2022-11-10T11:18:00;18.35;;;7.10;;
29504;SDS011;16452;54.174;12.092;2022-11-10T11:26:16;18.60;;;6.90;;
29504;SDS011;16452;54.174;12.092;2022-11-10T11:29:00;16.35;;;7.60;;
29504;SDS011;16452;54.174;12.092;2022-11-10T11:37:49;17.90;;;6.95;;
29504;SDS011;16452;54.174;12.092;2022-11-10T11:43:57;16.50;;;6.88;;
29504;SDS011;16452;54.174;12.092;2022-11-10T11:52:33;18.35;;;6.93;;
29504;SDS011;16452;54.174;12.092;2022-11-10T11:58:30;16.60;;;6.47;;
29504;SDS011;16452;54.174;12.092;2022-11-10T12:04:41;21.45;;;7.95;;
29504;SDS011;16452;54.174;12.092;2022-11-10T12:10:25;19.60;;;7.38;;
29504;SDS011;16452;54.174;12.092;2022-11-10T12:18:46;20.02;;;7.10;;
29504;SDS011;16452;54.174;12.092;2022-11-10T12:21:35;28.08;;;7.35;;
29504;SDS011;16452;54.174;12.092;2022-11-10T12:24:18;22.98;;;7.68;;
29504;SDS011;16452;54.174;12.092;2022-11-10T12:27:07;20.83;;;7.68;;
29504;SDS011;16452;54.174;12.092;2022-11-10T12:29:57;19.63;;;6.95;;
29504;SDS011;16452;54.174;12.092;2022-11-10T12:40:37;20.00;;;7.90;;
29504;SDS011;16452;54.174;12.092;2022-11-10T12:46:05;12.95;;;5.82;;
29504;SDS011;16452;54.174;12.092;2022-11-10T12:51:35;18.83;;;6.75;;
29504;SDS011;16452;54.174;12.092;2022-11-10T12:54:15;19.23;;;7.10;;
29504;SDS011;16452;54.174;12.092;2022-11-10T12:56:48;17.67;;;6.45;;
29504;SDS011;16452;54.174;12.092;2022-11-10T12:59:28;19.52;;;6.93;;
29504;SDS011;16452;54.174;12.092;2022-11-10T13:02:00;22.55;;;8.00;;
29504;SDS011;16452;54.174;12.092;2022-11-10T13:04:30;19.33;;;7.05;;
29504;SDS011;16452;54.174;12.092;2022-11-10T13:07:03;14.77;;;6.38;;
29504;SDS011;16452;54.174;12.092;2022-11-10T13:09:31;15.73;;;6.70;;
29504;SDS011;16452;54.174;12.092;2022-11-10T13:14:34;22.33;;;7.03;;
29504;SDS011;16452;54.174;12.092;2022-11-10T13:17:01;15.77;;;6.72;;
29504;SDS011;16452;54.174;12.092;2022-11-10T13:24:25;18.17;;;6.38;;
29504;SDS011;16452;54.174;12.092;2022-11-10T13:34:38;18.17;;;6.60;;
29504;SDS011;16452;54.174;12.092;2022-11-10T13:37:42;13.55;;;6.28;;
29504;SDS011;16452;54.174;12.092;2022-11-10T13:50:58;15.60;;;6.03;;
29504;SDS011;16452;54.174;12.092;2022-11-10T13:53:45;20.08;;;7.82;;
29504;SDS011;16452;54.174;12.092;2022-11-10T13:59:24;16.95;;;5.80;;
29504;SDS011;16452;54.174;12.092;2022-11-10T14:02:34;18.38;;;5.80;;
29504;SDS011;16452;54.174;12.092;2022-11-10T14:04:58;20.23;;;5.97;;
29504;SDS011;16452;54.174;12.092;2022-11-10T14:07:42;17.30;;;5.70;;
29504;SDS011;16452;54.174;12.092;2022-11-10T14:10:11;21.65;;;5.80;;
29504;SDS011;16452;54.174;12.092;2022-11-10T14:15:29;19.35;;;5.95;;
29504;SDS011;16452;54.174;12.092;2022-11-10T14:18:44;23.27;;;5.47;;
29504;SDS011;16452;54.174;12.092;2022-11-10T14:21:05;18.58;;;6.07;;
29504;SDS011;16452;54.174;12.092;2022-11-10T14:23:46;16.45;;;6.03;;
29504;SDS011;16452;54.174;12.092;2022-11-10T14:32:04;22.63;;;6.38;;
29504;SDS011;16452;54.174;12.092;2022-11-10T14:34:45;16.55;;;5.40;;
29504;SDS011;16452;54.174;12.092;2022-11-10T14:37:25;15.75;;;5.28;;
29504;SDS011;16452;54.174;12.092;2022-11-10T14:39:59;18.35;;;5.82;;
29504;SDS011;16452;54.174;12.092;2022-11-10T14:42:27;21.05;;;5.25;;
29504;SDS011;16452;54.174;12.092;2022-11-10T14:45:16;24.77;;;5.55;;
29504;SDS011;16452;54.174;12.092;2022-11-10T14:47:54;16.13;;;5.28;;
29504;SDS011;16452;54.174;12.092;2022-11-10T14:50:42;15.25;;;5.78;;
29504;SDS011;16452;54.174;12.092;2022-11-10T14:55:58;20.92;;;5.95;;
29504;SDS011;16452;54.174;12.092;2022-11-10T15:00:59;16.63;;;5.43;;
29504;SDS011;16452;54.174;12.092;2022-11-10T15:03:35;19.52;;;6.32;;
29504;SDS011;16452;54.174;12.092;2022-11-10T15:06:08;16.38;;;5.63;;
29504;SDS011;16452;54.174;12.092;2022-11-10T15:08:37;22.95;;;6.10;;
29504;SDS011;16452;54.174;12.092;2022-11-10T15:11:05;15.15;;;5.43;;
29504;SDS011;16452;54.174;12.092;2022-11-10T15:13:36;17.75;;;5.78;;
29504;SDS011;16452;54.174;12.092;2022-11-10T15:21:45;17.95;;;5.75;;
29504;SDS011;16452;54.174;12.092;2022-11-10T15:24:11;17.23;;;5.43;;
29504;SDS011;16452;54.174;12.092;2022-11-10T15:26:37;21.30;;;5.90;;
29504;SDS011;16452;54.174;12.092;2022-11-10T15:29:06;16.60;;;5.00;;
29504;SDS011;16452;54.174;12.092;2022-11-10T15:31:46;12.82;;;4.68;;
29504;SDS011;16452;54.174;12.092;2022-11-10T15:34:29;17.65;;;5.20;;
29504;SDS011;16452;54.174;12.092;2022-11-10T15:37:26;20.40;;;4.97;;
29504;SDS011;16452;54.174;12.092;2022-11-10T15:46:07;20.33;;;5.63;;
29504;SDS011;16452;54.174;12.092;2022-11-10T15:48:49;21.77;;;5.25;;
29504;SDS011;16452;54.174;12.092;2022-11-10T15:51:17;15.85;;;5.55;;
29504;SDS011;16452;54.174;12.092;2022-11-10T15:53:45;19.38;;;5.80;;
29504;SDS011;16452;54.174;12.092;2022-11-10T15:56:14;17.15;;;4.78;;
29504;SDS011;16452;54.174;12.092;2022-11-10T15:58:47;15.88;;;5.30;;
29504;SDS011;16452;54.174;12.092;2022-11-10T16:01:16;21.75;;;5.28;;
29504;SDS011;16452;54.174;12.092;2022-11-10T16:03:42;13.88;;;4.65;;
29504;SDS011;16452;54.174;12.092;2022-11-10T16:06:10;14.15;;;4.55;;
29504;SDS011;16452;54.174;12.092;2022-11-10T16:08:38;15.48;;;5.40;;
29504;SDS011;16452;54.174;12.092;2022-11-10T16:11:06;17.17;;;5.05;;
29504;SDS011;16452;54.174;12.092;2022-11-10T16:13:45;19.42;;;4.75;;
29504;SDS011;16452;54.174;12.092;2022-11-10T16:16:12;17.75;;;5.05;;
29504;SDS011;16452;54.174;12.092;2022-11-10T16:18:41;19.45;;;5.47;;
29504;SDS011;16452;54.174;12.092;2022-11-10T16:21:14;17.23;;;4.90;;
29504;SDS011;16452;54.174;12.092;2022-11-10T16:23:46;10.85;;;4.13;;
29504;SDS011;16452;54.174;12.092;2022-11-10T16:26:14;18.92;;;4.68;;
29504;SDS011;16452;54.174;12.092;2022-11-10T16:28:43;13.85;;;4.90;;
29504;SDS011;16452;54.174;12.092;2022-11-10T16:31:12;15.73;;;4.28;;
29504;SDS011;16452;54.174;12.092;2022-11-10T16:33:40;18.10;;;5.10;;
29504;SDS011;16452;54.174;12.092;2022-11-10T16:36:11;11.43;;;4.00;;
29504;SDS011;16452;54.174;12.092;2022-11-10T16:38:47;14.43;;;4.60;;
29504;SDS011;16452;54.174;12.092;2022-11-10T16:41:15;15.00;;;4.95;;
29504;SDS011;16452;54.174;12.092;2022-11-10T16:43:40;12.98;;;4.30;;
29504;SDS011;16452;54.174;12.092;2022-11-10T16:46:25;14.77;;;5.00;;
29504;SDS011;16452;54.174;12.092;2022-11-10T16:48:55;22.15;;;5.90;;
29504;SDS011;16452;54.174;12.092;2022-11-10T16:51:26;18.65;;;5.43;;
29504;SDS011;16452;54.174;12.092;2022-11-10T16:54:03;21.13;;;5.30;;
29504;SDS011;16452;54.174;12.092;2022-11-10T16:56:29;17.80;;;5.70;;
29504;SDS011;16452;54.174;12.092;2022-11-10T16:58:54;19.13;;;5.43;;
29504;SDS011;16452;54.174;12.092;2022-11-10T17:01:27;13.15;;;5.30;;